createdAt,value
2022-08-08T00:01:52.596Z,20.79
2022-08-08T00:04:49.171Z,20.80
2022-08-08T00:07:29.226Z,20.73
2022-08-08T00:10:10.719Z,20.73
2022-08-08T00:12:43.345Z,20.68
2022-08-08T00:15:24.184Z,20.64
2022-08-08T00:18:03.107Z,20.62
2022-08-08T00:20:52.098Z,20.60
2022-08-08T00:23:43.279Z,20.59
2022-08-08T00:26:38.740Z,20.63
2022-08-08T00:29:24.586Z,20.65
2022-08-08T00:32:34.615Z,20.65
2022-08-08T00:35:37.342Z,20.63
2022-08-08T00:38:30.967Z,20.59
2022-08-08T00:41:55.185Z,20.55
2022-08-08T00:44:51.013Z,20.54
2022-08-08T00:48:05.463Z,20.50
2022-08-08T00:51:02.782Z,20.52
2022-08-08T00:53:43.719Z,20.55
2022-08-08T00:57:01.744Z,20.54
2022-08-08T00:59:50.991Z,20.53
2022-08-08T01:04:01.387Z,20.50
2022-08-08T01:06:02.663Z,20.51
2022-08-08T01:09:34.969Z,20.58
2022-08-08T01:12:52.118Z,20.51
2022-08-08T01:15:54.316Z,20.50
2022-08-08T01:18:53.815Z,20.40
2022-08-08T01:21:35.082Z,20.38
2022-08-08T01:24:57.400Z,20.40
2022-08-08T01:27:47.606Z,20.39
2022-08-08T01:30:37.475Z,20.40
2022-08-08T01:33:54.149Z,20.38
2022-08-08T01:36:48.643Z,20.36
2022-08-08T01:40:14.649Z,20.32
2022-08-08T01:43:21.074Z,20.31
2022-08-08T01:45:56.144Z,20.33
2022-08-08T01:48:46.169Z,20.28
2022-08-08T01:52:04.543Z,20.24
2022-08-08T01:55:25.516Z,20.25
2022-08-08T01:58:14.024Z,20.18
2022-08-08T02:01:09.047Z,20.15
2022-08-08T02:04:16.977Z,20.09
2022-08-08T02:07:08.941Z,20.04
2022-08-08T02:10:12.144Z,20.06
2022-08-08T02:13:05.078Z,20.08
2022-08-08T02:15:45.601Z,20.08
2022-08-08T02:18:18.649Z,20.02
2022-08-08T02:21:18.277Z,19.99
2022-08-08T02:24:14.883Z,20.00
2022-08-08T02:26:55.374Z,19.97
2022-08-08T02:29:54.791Z,19.89
2022-08-08T02:32:36.230Z,19.84
2022-08-08T02:35:29.370Z,19.84
2022-08-08T02:38:09.104Z,19.82
2022-08-08T02:40:49.923Z,19.81
2022-08-08T02:44:38.278Z,19.84
2022-08-08T02:46:43.803Z,19.89
2022-08-08T02:49:27.672Z,19.87
2022-08-08T02:52:35.384Z,19.81
2022-08-08T02:55:37.156Z,19.77
2022-08-08T02:58:26.560Z,19.75
2022-08-08T03:01:03.108Z,19.71
2022-08-08T03:05:02.957Z,19.63
2022-08-08T03:07:09.727Z,19.56
2022-08-08T03:09:53.957Z,19.57
2022-08-08T03:13:02.539Z,19.53
2022-08-08T03:16:35.379Z,19.50
2022-08-08T03:19:38.337Z,19.52
2022-08-08T03:22:38.216Z,19.50
2022-08-08T03:24:56.889Z,19.46
2022-08-08T03:27:41.936Z,19.36
2022-08-08T03:30:19.066Z,19.29
2022-08-08T03:33:54.624Z,19.29
2022-08-08T03:35:59.682Z,19.25
2022-08-08T03:38:56.112Z,19.21
2022-08-08T03:42:13.035Z,19.24
2022-08-08T03:44:06.262Z,19.34
2022-08-08T03:46:50.003Z,19.42
2022-08-08T03:49:57.326Z,19.50
2022-08-08T03:52:16.449Z,19.51
2022-08-08T03:55:01.779Z,19.57
2022-08-08T03:58:31.498Z,19.61
2022-08-08T04:00:26.827Z,19.63
2022-08-08T04:03:11.741Z,19.64
2022-08-08T04:05:47.955Z,19.61
2022-08-08T04:08:32.980Z,19.52
2022-08-08T04:11:11.518Z,19.43
2022-08-08T04:14:03.084Z,19.42
2022-08-08T04:16:40.104Z,19.38
2022-08-08T04:19:23.968Z,19.33
2022-08-08T04:21:57.506Z,19.32
2022-08-08T04:24:29.522Z,19.36
2022-08-08T04:27:00.915Z,19.37
2022-08-08T04:29:36.585Z,19.41
2022-08-08T04:32:07.461Z,19.45
2022-08-08T04:34:55.257Z,19.51
2022-08-08T04:37:31.547Z,19.55
2022-08-08T04:40:07.904Z,19.58
2022-08-08T04:42:46.769Z,19.61
2022-08-08T04:45:28.541Z,19.67
2022-08-08T04:48:00.341Z,19.73
2022-08-08T04:50:37.946Z,19.76
2022-08-08T04:53:13.940Z,19.73
2022-08-08T04:56:00.596Z,19.75
2022-08-08T04:58:33.095Z,19.76
2022-08-08T05:01:08.882Z,19.79
2022-08-08T05:04:11.519Z,19.80
2022-08-08T05:06:29.474Z,19.85
2022-08-08T05:09:02.917Z,19.93
2022-08-08T05:11:39.730Z,19.98
2022-08-08T05:14:14.822Z,19.99
2022-08-08T05:16:53.574Z,20.00
2022-08-08T05:20:11.494Z,20.03
2022-08-08T05:22:18.314Z,20.09
2022-08-08T05:24:49.342Z,20.14
2022-08-08T05:27:21.614Z,20.17
2022-08-08T05:29:52.137Z,20.18
2022-08-08T05:32:27.354Z,20.19
2022-08-08T05:35:04.601Z,20.22
2022-08-08T05:37:51.839Z,20.26
2022-08-08T05:40:28.141Z,20.29
2022-08-08T05:43:17.077Z,20.28
2022-08-08T05:46:01.917Z,20.29
2022-08-08T05:48:34.731Z,20.35
2022-08-08T05:51:14.834Z,20.40
2022-08-08T05:54:24.321Z,20.48
2022-08-08T05:56:42.228Z,20.55
2022-08-08T06:00:01.113Z,20.57
2022-08-08T06:02:43.458Z,20.65
2022-08-08T06:05:35.122Z,20.73
2022-08-08T06:08:33.077Z,20.78
2022-08-08T06:11:05.428Z,20.83
2022-08-08T06:13:36.366Z,20.90
2022-08-08T06:16:18.994Z,20.99
2022-08-08T06:19:19.674Z,21.06
2022-08-08T06:21:57.403Z,21.10
2022-08-08T06:24:51.179Z,21.20
2022-08-08T06:27:38.703Z,21.28
2022-08-08T06:30:11.937Z,21.34
2022-08-08T06:32:52.658Z,21.42
2022-08-08T06:36:04.208Z,21.51
2022-08-08T06:38:19.277Z,21.62
2022-08-08T06:41:13.520Z,21.68
2022-08-08T06:43:56.883Z,21.76
2022-08-08T06:46:30.275Z,21.84
2022-08-08T06:49:00.937Z,21.90
2022-08-08T06:51:46.660Z,21.98
2022-08-08T06:54:17.580Z,22.07
2022-08-08T06:56:51.304Z,22.14
2022-08-08T06:59:21.427Z,22.21
2022-08-08T07:02:27.350Z,22.28
2022-08-08T07:04:52.353Z,22.34
2022-08-08T07:07:36.962Z,22.40
2022-08-08T07:10:08.747Z,22.49
2022-08-08T07:12:47.713Z,22.56
2022-08-08T07:15:32.302Z,22.64
2022-08-08T07:18:35.775Z,22.74
2022-08-08T07:21:18.597Z,22.83
2022-08-08T07:24:01.305Z,22.95
2022-08-08T07:26:40.404Z,23.04
2022-08-08T07:29:11.671Z,23.14
2022-08-08T07:31:49.891Z,23.23
2022-08-08T07:34:20.311Z,23.29
2022-08-08T07:36:58.130Z,23.31
2022-08-08T07:39:56.059Z,23.38
2022-08-08T07:42:18.970Z,23.49
2022-08-08T07:44:48.209Z,23.58
2022-08-08T07:47:38.315Z,23.66
2022-08-08T07:50:09.891Z,23.78
2022-08-08T07:52:43.610Z,23.90
2022-08-08T07:55:28.644Z,23.95
2022-08-08T07:58:28.283Z,24.02
2022-08-08T08:01:05.273Z,24.11
2022-08-08T08:03:43.700Z,24.18
2022-08-08T08:06:17.879Z,24.23
2022-08-08T08:09:05.675Z,24.30
2022-08-08T08:11:52.633Z,24.36
2022-08-08T08:15:02.930Z,24.44
2022-08-08T08:17:47.744Z,24.51
2022-08-08T08:20:29.865Z,24.55
2022-08-08T08:22:58.968Z,24.60
2022-08-08T08:25:42.935Z,24.66
2022-08-08T08:28:21.048Z,24.78
2022-08-08T08:30:55.623Z,24.91
2022-08-08T08:33:26.441Z,25.07
2022-08-08T08:36:18.948Z,25.20
2022-08-08T08:38:49.536Z,25.30
2022-08-08T08:41:23.839Z,25.40
2022-08-08T08:44:14.009Z,25.48
2022-08-08T08:46:45.567Z,25.52
2022-08-08T08:49:16.373Z,25.57
2022-08-08T08:51:50.884Z,25.61
2022-08-08T08:54:25.373Z,25.68
2022-08-08T08:56:56.336Z,25.73
2022-08-08T08:59:58.479Z,25.79
2022-08-08T09:02:24.403Z,25.87
2022-08-08T09:05:04.592Z,25.93
2022-08-08T09:07:39.592Z,25.96
2022-08-08T09:10:23.766Z,26.01
2022-08-08T09:12:59.173Z,26.07
2022-08-08T09:15:41.581Z,26.14
2022-08-08T09:18:11.345Z,26.23
2022-08-08T09:21:57.303Z,26.26
2022-08-08T09:23:40.749Z,26.30
2022-08-08T09:26:21.534Z,26.31
2022-08-08T09:28:50.838Z,26.32
2022-08-08T09:31:55.924Z,26.38
2022-08-08T09:34:32.799Z,26.48
2022-08-08T09:37:57.865Z,26.54
2022-08-08T09:40:08.682Z,26.57
2022-08-08T09:42:51.610Z,26.63
2022-08-08T09:46:01.311Z,26.69
2022-08-08T09:48:27.934Z,26.82
2022-08-08T09:51:05.341Z,26.92
2022-08-08T09:54:01.213Z,27.02
2022-08-08T09:56:27.783Z,27.16
2022-08-08T09:59:20.116Z,27.22
2022-08-08T10:02:02.002Z,27.26
2022-08-08T10:04:38.303Z,27.31
2022-08-08T10:07:17.332Z,27.37
2022-08-08T10:10:00.559Z,27.45
2022-08-08T10:12:53.936Z,27.50
2022-08-08T10:15:27.753Z,27.52
2022-08-08T10:18:10.304Z,27.57
2022-08-08T10:20:57.274Z,27.63
2022-08-08T10:23:55.945Z,27.64
2022-08-08T10:27:04.853Z,27.68
2022-08-08T10:29:58.789Z,27.73
2022-08-08T10:32:37.273Z,27.77
2022-08-08T10:35:20.619Z,27.82
2022-08-08T10:38:05.804Z,27.88
2022-08-08T10:40:38.891Z,27.99
2022-08-08T10:43:09.777Z,28.10
2022-08-08T10:45:56.411Z,28.18
2022-08-08T10:48:57.496Z,28.26
2022-08-08T10:51:47.105Z,28.31
2022-08-08T10:54:25.108Z,28.37
2022-08-08T10:57:03.779Z,28.42
2022-08-08T10:59:39.306Z,28.54
2022-08-08T11:02:10.705Z,28.68
2022-08-08T11:04:53.199Z,28.77
2022-08-08T11:08:31.273Z,28.81
2022-08-08T11:10:28.510Z,28.90
2022-08-08T11:15:54.818Z,29.07
2022-08-08T11:18:31.217Z,29.17
2022-08-08T11:21:09.134Z,29.26
2022-08-08T11:23:42.864Z,29.27
2022-08-08T11:26:18.651Z,29.30
2022-08-08T11:28:50.280Z,29.36
2022-08-08T11:31:20.730Z,29.40
2022-08-08T11:34:01.717Z,29.45
2022-08-08T11:36:36.429Z,29.53
2022-08-08T11:39:12.845Z,29.61
2022-08-08T11:41:43.278Z,29.75
2022-08-08T11:44:14.922Z,29.83
2022-08-08T11:46:43.858Z,29.87
2022-08-08T11:49:14.063Z,29.98
2022-08-08T11:51:49.775Z,29.99
2022-08-08T11:54:34.319Z,30.00
2022-08-08T11:57:14.569Z,30.09
2022-08-08T12:00:02.816Z,30.14
2022-08-08T12:02:54.323Z,30.20
2022-08-08T12:05:37.235Z,30.28
2022-08-08T12:08:07.355Z,30.33
2022-08-08T12:10:47.720Z,30.32
2022-08-08T12:13:37.819Z,30.31
2022-08-08T12:16:13.623Z,30.32
2022-08-08T12:18:55.885Z,30.34
2022-08-08T12:22:00.685Z,30.40
2022-08-08T12:24:19.374Z,30.49
2022-08-08T12:26:50.497Z,30.51
2022-08-08T12:29:40.788Z,30.51
2022-08-08T12:32:17.034Z,30.50
2022-08-08T12:35:01.299Z,30.52
2022-08-08T12:37:40.435Z,30.58
2022-08-08T12:40:22.613Z,30.59
2022-08-08T12:42:53.578Z,30.55
2022-08-08T12:45:58.174Z,30.56
2022-08-08T12:48:37.378Z,30.59
2022-08-08T12:51:11.448Z,30.62
2022-08-08T12:53:59.368Z,30.67
2022-08-08T12:56:34.437Z,30.69
2022-08-08T12:59:13.326Z,30.72
2022-08-08T13:01:49.399Z,30.72
2022-08-08T13:04:24.486Z,30.70
2022-08-08T13:07:03.167Z,30.65
2022-08-08T13:10:00.926Z,30.59
2022-08-08T13:12:30.128Z,30.59
2022-08-08T13:15:22.364Z,30.58
2022-08-08T13:18:09.990Z,30.63
2022-08-08T13:20:48.410Z,30.73
2022-08-08T13:23:35.851Z,30.74
2022-08-08T13:26:13.291Z,30.73
2022-08-08T13:28:45.730Z,30.72
2022-08-08T13:31:17.083Z,30.69
2022-08-08T13:33:49.984Z,30.71
2022-08-08T13:36:25.950Z,30.75
2022-08-08T13:39:00.043Z,30.80
2022-08-08T13:41:37.620Z,30.83
2022-08-08T13:44:10.799Z,30.81
2022-08-08T13:46:40.523Z,30.83
2022-08-08T13:50:33.934Z,30.88
2022-08-08T13:52:07.579Z,30.94
2022-08-08T13:54:40.782Z,30.94
2022-08-08T13:57:15.080Z,30.94
2022-08-08T13:59:49.037Z,30.99
2022-08-08T14:02:23.047Z,31.04
2022-08-08T14:05:21.995Z,31.11
2022-08-08T14:07:53.122Z,31.21
2022-08-08T14:10:36.725Z,31.31
2022-08-08T14:13:30.480Z,31.40
2022-08-08T14:16:08.003Z,31.56
2022-08-08T14:18:52.300Z,31.53
2022-08-08T14:21:23.845Z,31.35
2022-08-08T14:24:07.859Z,31.07
2022-08-08T14:26:42.418Z,30.81
2022-08-08T14:29:30.007Z,30.62
2022-08-08T14:32:08.838Z,30.38
2022-08-08T14:34:42.801Z,30.13
2022-08-08T14:37:12.853Z,30.02
2022-08-08T14:39:48.804Z,29.92
2022-08-08T14:42:55.089Z,29.79
2022-08-08T14:45:46.803Z,29.64
2022-08-08T14:48:34.594Z,29.50
2022-08-08T14:51:07.387Z,29.36
2022-08-08T14:53:37.409Z,29.26
2022-08-08T14:56:26.176Z,29.12
2022-08-08T14:58:54.871Z,28.99
2022-08-08T15:01:40.719Z,28.88
2022-08-08T15:04:11.387Z,28.77
2022-08-08T15:06:42.661Z,28.70
2022-08-08T15:09:13.400Z,28.67
2022-08-08T15:11:46.093Z,28.64
2022-08-08T15:14:25.034Z,28.59
2022-08-08T15:16:55.232Z,28.58
2022-08-08T15:19:27.783Z,28.55
2022-08-08T15:21:57.941Z,28.50
2022-08-08T15:24:31.129Z,28.52
2022-08-08T15:27:12.025Z,28.51
2022-08-08T15:29:48.647Z,28.49
2022-08-08T15:32:20.464Z,28.50
2022-08-08T15:34:51.046Z,28.50
2022-08-08T15:37:19.145Z,28.51
2022-08-08T15:39:48.003Z,28.51
2022-08-08T15:42:33.081Z,28.51
2022-08-08T15:45:02.550Z,28.52
2022-08-08T15:47:31.447Z,28.53
2022-08-08T15:50:00.287Z,28.51
2022-08-08T15:52:28.731Z,28.49
2022-08-08T15:54:56.876Z,28.46
2022-08-08T15:57:26.222Z,28.46
2022-08-08T16:00:06.848Z,28.47
2022-08-08T16:02:50.212Z,28.47
2022-08-08T16:05:23.389Z,28.44
2022-08-08T16:07:53.967Z,28.41
2022-08-08T16:13:05.868Z,28.38
2022-08-08T16:13:29.990Z,28.34
2022-08-08T16:16:12.810Z,28.30
2022-08-08T16:18:56.334Z,28.24
2022-08-08T16:21:28.089Z,28.08
2022-08-08T16:24:01.305Z,27.98
2022-08-08T16:26:32.810Z,27.95
2022-08-08T16:29:07.911Z,27.95
2022-08-08T16:31:41.025Z,27.93
2022-08-08T16:34:09.873Z,27.92
2022-08-08T16:36:40.752Z,27.92
2022-08-08T16:39:16.986Z,27.90
2022-08-08T16:42:00.980Z,27.90
2022-08-08T16:44:33.791Z,27.87
2022-08-08T16:47:40.108Z,27.81
2022-08-08T16:50:15.605Z,27.74
2022-08-08T16:54:59.753Z,27.68
2022-08-08T16:55:56.065Z,27.59
2022-08-08T16:58:26.694Z,27.50
2022-08-08T17:00:58.920Z,27.42
2022-08-08T17:03:47.548Z,27.33
2022-08-08T17:06:17.667Z,27.20
2022-08-08T17:09:04.091Z,27.12
2022-08-08T17:11:39.577Z,27.08
2022-08-08T17:14:18.996Z,27.00
2022-08-08T17:16:51.758Z,26.91
2022-08-08T17:19:29.106Z,26.82
2022-08-08T17:22:01.275Z,26.71
2022-08-08T17:24:31.200Z,26.62
2022-08-08T17:27:01.112Z,26.53
2022-08-08T17:29:33.411Z,26.45
2022-08-08T17:32:04.394Z,26.40
2022-08-08T17:34:48.660Z,26.33
2022-08-08T17:37:23.246Z,26.27
2022-08-08T17:40:05.990Z,26.22
2022-08-08T17:42:47.000Z,26.15
2022-08-08T17:45:23.209Z,26.09
2022-08-08T17:47:54.177Z,26.02
2022-08-08T17:50:24.958Z,25.98
2022-08-08T17:52:53.545Z,25.95
2022-08-08T17:56:04.774Z,25.90
2022-08-08T17:58:10.506Z,25.85
2022-08-08T18:00:41.548Z,25.82
2022-08-08T18:03:13.709Z,25.78
2022-08-08T18:05:48.501Z,25.71
2022-08-08T18:08:38.274Z,25.69
2022-08-08T18:11:14.625Z,25.65
2022-08-08T18:13:47.190Z,25.61
2022-08-08T18:16:17.118Z,25.58
2022-08-08T18:18:52.731Z,25.52
2022-08-08T18:21:59.104Z,25.47
2022-08-08T18:24:19.112Z,25.44
2022-08-08T18:26:54.210Z,25.40
2022-08-08T18:29:33.136Z,25.38
2022-08-08T18:32:05.138Z,25.35
2022-08-08T18:34:34.637Z,25.31
2022-08-08T18:37:06.578Z,25.30
2022-08-08T18:39:41.393Z,25.27
2022-08-08T18:42:16.049Z,25.20
2022-08-08T18:44:55.256Z,25.16
2022-08-08T18:47:26.592Z,25.12
2022-08-08T18:49:58.619Z,25.08
2022-08-08T18:52:34.772Z,25.05
2022-08-08T18:55:10.767Z,25.03
2022-08-08T18:57:44.700Z,25.00
2022-08-08T19:00:19.751Z,25.00
2022-08-08T19:02:56.215Z,24.99
2022-08-08T19:05:32.316Z,24.97
2022-08-08T19:08:10.300Z,24.93
2022-08-08T19:10:55.335Z,24.90
2022-08-08T19:13:24.430Z,24.89
2022-08-08T19:15:55.707Z,24.84
2022-08-08T19:18:32.001Z,24.79
2022-08-08T19:21:04.706Z,24.74
2022-08-08T19:23:52.644Z,24.65
2022-08-08T19:26:29.404Z,24.60
2022-08-08T19:29:00.059Z,24.56
2022-08-08T19:31:31.474Z,24.52
2022-08-08T19:34:36.216Z,24.45
2022-08-08T19:36:58.968Z,24.38
2022-08-08T19:39:35.692Z,24.32
2022-08-08T19:42:06.944Z,24.23
2022-08-08T19:44:46.443Z,24.18
2022-08-08T19:47:24.623Z,24.12
2022-08-08T19:50:00.561Z,24.09
2022-08-08T19:52:34.767Z,24.08
2022-08-08T19:55:12.313Z,24.09
2022-08-08T19:57:43.114Z,24.05
2022-08-08T20:00:29.154Z,23.99
2022-08-08T20:03:14.863Z,23.92
2022-08-08T20:06:15.434Z,23.84
2022-08-08T20:08:47.792Z,23.80
2022-08-08T20:11:16.915Z,23.77
2022-08-08T20:14:32.961Z,23.74
2022-08-08T20:16:37.592Z,23.69
2022-08-08T20:19:09.681Z,23.68
2022-08-08T20:21:38.806Z,23.66
2022-08-08T20:24:08.818Z,23.66
2022-08-08T20:26:41.657Z,23.65
2022-08-08T20:29:16.157Z,23.61
2022-08-08T20:32:06.985Z,23.60
2022-08-08T20:34:32.431Z,23.58
2022-08-08T20:37:04.528Z,23.54
2022-08-08T20:39:41.311Z,23.50
2022-08-08T20:42:28.216Z,23.45
2022-08-08T20:44:58.898Z,23.39
2022-08-08T20:47:36.034Z,23.35
2022-08-08T20:50:05.710Z,23.33
2022-08-08T20:52:33.703Z,23.33
2022-08-08T20:55:01.688Z,23.33
2022-08-08T20:57:47.681Z,23.33
2022-08-08T21:00:19.043Z,23.34
2022-08-08T21:02:48.496Z,23.35
2022-08-08T21:05:20.547Z,23.36
2022-08-08T21:08:37.114Z,23.35
2022-08-08T21:10:40.363Z,23.36
2022-08-08T21:13:08.937Z,23.34
2022-08-08T21:16:06.200Z,23.33
2022-08-08T21:18:27.898Z,23.31
2022-08-08T21:20:56.513Z,23.30
2022-08-08T21:23:59.161Z,23.29
2022-08-08T21:26:12.959Z,23.29
2022-08-08T21:28:49.784Z,23.30
2022-08-08T21:31:22.092Z,23.32
2022-08-08T21:33:54.770Z,23.32
2022-08-08T21:36:28.483Z,23.29
2022-08-08T21:38:58.397Z,23.26
2022-08-08T21:41:28.741Z,23.25
2022-08-08T21:44:07.018Z,23.22
2022-08-08T21:48:07.692Z,23.17
2022-08-08T21:49:31.065Z,23.11
2022-08-08T21:54:33.836Z,23.06
2022-08-08T21:54:54.139Z,23.01
2022-08-08T21:57:42.426Z,23.02
2022-08-08T22:00:14.303Z,23.02
2022-08-08T22:02:44.462Z,23.00
2022-08-08T22:05:14.744Z,23.01
2022-08-08T22:07:47.481Z,23.01
2022-08-08T22:10:32.063Z,23.01
2022-08-08T22:13:18.325Z,23.00
2022-08-08T22:15:58.741Z,22.97
2022-08-08T22:18:30.560Z,22.94
2022-08-08T22:21:10.780Z,22.90
2022-08-08T22:23:50.964Z,22.81
2022-08-08T22:26:29.568Z,22.72
2022-08-08T22:29:13.663Z,22.65
2022-08-08T22:31:58.574Z,22.55
2022-08-08T22:34:39.235Z,22.51
2022-08-08T22:37:14.987Z,22.47
2022-08-08T22:40:00.790Z,22.38
2022-08-08T22:42:32.019Z,22.35
2022-08-08T22:45:12.545Z,22.32
2022-08-08T22:47:49.407Z,22.27
2022-08-08T22:50:26.789Z,22.23
2022-08-08T22:54:28.511Z,22.21
2022-08-08T22:55:57.768Z,22.18
2022-08-08T22:58:31.853Z,22.15
2022-08-08T23:01:33.699Z,22.09
2022-08-08T23:03:55.868Z,22.05
2022-08-08T23:06:25.871Z,22.03
2022-08-08T23:08:58.606Z,22.05
2022-08-08T23:11:31.371Z,22.02
2022-08-08T23:14:19.208Z,21.99
2022-08-08T23:16:57.499Z,21.93
2022-08-08T23:19:32.454Z,21.87
2022-08-08T23:22:04.090Z,21.84
2022-08-08T23:24:41.457Z,21.76
2022-08-08T23:27:37.479Z,21.70
2022-08-08T23:29:59.985Z,21.66
2022-08-08T23:32:27.854Z,21.63
2022-08-08T23:34:59.030Z,21.58
2022-08-08T23:38:01.085Z,21.56
2022-08-08T23:40:16.991Z,21.50
2022-08-08T23:42:50.187Z,21.41
2022-08-08T23:49:03.471Z,21.36
2022-08-08T23:49:05.809Z,21.33
2022-08-08T23:50:57.392Z,21.31
2022-08-08T23:53:55.729Z,21.27
2022-08-08T23:56:13.800Z,21.27
2022-08-08T23:58:52.114Z,21.29
